createdAt,value
2023-01-04T00:02:55.251Z,81.82
2023-01-04T00:08:17.060Z,81.33
2023-01-04T00:13:38.928Z,81.52
2023-01-04T00:19:00.626Z,81.00
2023-01-04T00:24:22.415Z,80.82
2023-01-04T00:29:44.170Z,80.25
2023-01-04T00:35:06.242Z,80.74
2023-01-04T00:40:27.954Z,81.70
2023-01-04T00:45:49.783Z,81.38
2023-01-04T00:51:11.581Z,80.70
2023-01-04T00:56:34.322Z,80.79
2023-01-04T01:01:56.482Z,80.49
2023-01-04T01:07:18.253Z,79.79
2023-01-04T01:12:40.061Z,79.72
2023-01-04T01:18:01.790Z,80.10
2023-01-04T01:23:23.611Z,80.15
2023-01-04T01:28:45.859Z,80.59
2023-01-04T01:34:07.627Z,79.38
2023-01-04T01:39:29.459Z,80.48
2023-01-04T01:44:58.955Z,80.42
2023-01-04T01:50:33.033Z,80.12
2023-01-04T01:55:56.866Z,80.11
2023-01-04T02:01:18.795Z,79.96
2023-01-04T02:06:46.045Z,80.07
2023-01-04T02:12:11.612Z,79.96
2023-01-04T02:17:44.857Z,79.88
2023-01-04T02:23:24.974Z,79.89
2023-01-04T02:29:08.226Z,80.23
2023-01-04T02:34:29.877Z,80.30
2023-01-04T02:40:17.798Z,80.23
2023-01-04T02:45:50.954Z,80.53
2023-01-04T02:51:34.136Z,79.96
2023-01-04T02:57:04.917Z,80.15
2023-01-04T03:03:10.821Z,80.35
2023-01-04T03:08:44.911Z,80.54
2023-01-04T03:14:33.234Z,80.43
2023-01-04T03:19:58.214Z,79.84
2023-01-04T03:25:43.688Z,79.24
2023-01-04T03:31:34.925Z,79.27
2023-01-04T03:37:04.633Z,79.07
2023-01-04T03:43:00.412Z,79.44
2023-01-04T03:48:47.494Z,78.87
2023-01-04T03:54:11.938Z,78.65
2023-01-04T03:59:40.307Z,78.38
2023-01-04T04:05:20.759Z,77.77
2023-01-04T04:10:42.464Z,77.21
2023-01-04T04:16:04.319Z,76.91
2023-01-04T04:21:26.165Z,75.94
2023-01-04T04:26:47.971Z,75.68
2023-01-04T04:32:09.803Z,75.97
2023-01-04T04:37:32.140Z,75.43
2023-01-04T04:42:53.892Z,75.40
2023-01-04T04:48:15.592Z,75.19
2023-01-04T04:53:37.372Z,74.41
2023-01-04T04:58:59.299Z,73.61
2023-01-04T05:04:21.105Z,73.83
2023-01-04T05:09:42.812Z,73.87
2023-01-04T05:15:04.910Z,73.75
2023-01-04T05:20:27.166Z,73.31
2023-01-04T05:25:53.166Z,73.26
2023-01-04T05:31:14.927Z,73.92
2023-01-04T05:36:36.677Z,73.77
2023-01-04T05:42:17.133Z,74.21
2023-01-04T05:47:38.843Z,73.87
2023-01-04T05:53:00.642Z,73.78
2023-01-04T05:58:22.375Z,73.39
2023-01-04T06:03:44.446Z,73.61
2023-01-04T06:09:06.326Z,72.89
2023-01-04T06:14:28.122Z,72.76
2023-01-04T06:19:49.830Z,73.13
2023-01-04T06:25:11.651Z,72.67
2023-01-04T06:30:33.626Z,73.99
2023-01-04T06:35:56.098Z,73.09
2023-01-04T06:41:17.925Z,73.20
2023-01-04T06:46:41.122Z,72.99
2023-01-04T06:52:02.961Z,72.39
2023-01-04T06:57:24.713Z,72.33
2023-01-04T07:03:15.080Z,71.94
2023-01-04T07:08:28.158Z,72.04
2023-01-04T07:13:49.920Z,71.53
2023-01-04T07:19:11.623Z,71.83
2023-01-04T07:24:33.346Z,71.66
2023-01-04T07:29:55.112Z,71.78
2023-01-04T07:35:16.972Z,72.34
2023-01-04T07:40:55.768Z,73.40
2023-01-04T07:46:18.706Z,75.03
2023-01-04T07:51:40.487Z,76.20
2023-01-04T07:57:02.225Z,78.64
2023-01-04T08:02:24.008Z,79.13
2023-01-04T08:07:45.740Z,80.47
2023-01-04T08:13:07.427Z,82.22
2023-01-04T08:18:29.317Z,82.11
2023-01-04T08:23:52.000Z,83.58
2023-01-04T08:29:14.118Z,82.94
2023-01-04T08:34:35.922Z,81.88
2023-01-04T08:39:58.095Z,82.13
2023-01-04T08:45:19.818Z,82.32
2023-01-04T08:50:41.578Z,82.66
2023-01-04T08:56:03.522Z,81.08
2023-01-04T09:01:25.377Z,77.95
2023-01-04T09:06:47.229Z,76.14
2023-01-04T09:12:09.516Z,76.45
2023-01-04T09:17:31.317Z,75.43
2023-01-04T09:22:53.349Z,73.96
2023-01-04T09:28:15.215Z,74.92
2023-01-04T09:34:11.954Z,73.80
2023-01-04T09:39:22.997Z,72.50
2023-01-04T09:45:23.070Z,73.42
2023-01-04T09:50:56.087Z,73.84
2023-01-04T09:56:26.414Z,72.87
2023-01-04T10:01:53.815Z,73.09
2023-01-04T10:07:31.180Z,72.67
2023-01-04T10:13:10.904Z,71.62
2023-01-04T10:19:29.705Z,71.34
2023-01-04T10:24:58.504Z,71.08
2023-01-04T10:30:48.561Z,70.90
2023-01-04T10:36:24.467Z,71.59
2023-01-04T10:42:25.111Z,70.89
2023-01-04T10:48:16.102Z,71.52
2023-01-04T10:53:54.155Z,71.66
2023-01-04T10:59:27.828Z,70.80
2023-01-04T11:04:56.052Z,71.03
2023-01-04T11:10:31.640Z,70.45
2023-01-04T11:15:54.085Z,70.26
2023-01-04T11:21:21.446Z,69.28
2023-01-04T11:26:45.238Z,70.25
2023-01-04T11:32:30.599Z,70.73
2023-01-04T11:38:11.159Z,69.92
2023-01-04T11:43:37.820Z,69.75
2023-01-04T11:49:00.327Z,69.33
2023-01-04T11:54:22.963Z,68.64
2023-01-04T11:59:44.762Z,70.08
2023-01-04T12:05:22.758Z,69.08
2023-01-04T12:10:50.403Z,70.15
2023-01-04T12:16:51.350Z,70.61
2023-01-04T12:22:24.764Z,70.84
2023-01-04T12:27:51.461Z,70.18
2023-01-04T12:33:31.500Z,71.20
2023-01-04T12:39:02.902Z,71.23
2023-01-04T12:44:52.257Z,71.04
2023-01-04T12:50:24.948Z,71.62
2023-01-04T12:55:55.514Z,71.40
2023-01-04T13:01:24.568Z,71.27
2023-01-04T13:06:47.777Z,71.16
2023-01-04T13:12:36.120Z,71.54
2023-01-04T13:17:58.050Z,71.56
2023-01-04T13:23:19.999Z,71.92
2023-01-04T13:28:42.144Z,72.12
2023-01-04T13:34:03.881Z,71.70
2023-01-04T13:39:25.757Z,71.80
2023-01-04T13:45:20.124Z,71.44
2023-01-04T13:50:47.396Z,72.26
2023-01-04T13:56:20.937Z,71.79
2023-01-04T14:01:50.833Z,71.77
2023-01-04T14:07:18.767Z,71.01
2023-01-04T14:12:45.219Z,71.52
2023-01-04T14:18:26.180Z,71.52
2023-01-04T14:23:47.999Z,71.08
2023-01-04T14:29:22.808Z,71.95
2023-01-04T14:34:44.616Z,71.91
2023-01-04T14:40:24.707Z,71.56
2023-01-04T14:45:46.444Z,71.56
2023-01-04T14:51:08.641Z,71.52
2023-01-04T14:56:30.425Z,75.69
2023-01-04T15:01:53.287Z,73.12
2023-01-04T15:07:33.690Z,72.29
2023-01-04T15:12:57.663Z,71.24
2023-01-04T15:18:19.376Z,71.89
2023-01-04T15:23:41.271Z,71.51
2023-01-04T15:29:04.299Z,72.45
2023-01-04T15:34:26.037Z,72.83
2023-01-04T15:39:48.226Z,72.55
2023-01-04T15:45:10.153Z,72.30
2023-01-04T15:50:36.484Z,72.95
2023-01-04T15:56:05.238Z,72.85
2023-01-04T16:01:27.110Z,73.03
2023-01-04T16:06:48.970Z,73.34
2023-01-04T16:12:29.433Z,73.24
2023-01-04T16:17:51.266Z,73.47
2023-01-04T16:23:12.997Z,73.06
2023-01-04T16:28:35.314Z,72.89
2023-01-04T16:33:57.188Z,73.37
2023-01-04T16:39:19.606Z,73.25
2023-01-04T16:44:41.459Z,73.33
2023-01-04T16:50:03.350Z,73.11
2023-01-04T16:55:25.216Z,73.52
2023-01-04T17:00:47.027Z,73.48
2023-01-04T17:06:15.025Z,73.07
2023-01-04T17:12:19.163Z,72.99
2023-01-04T17:17:19.683Z,72.77
2023-01-04T17:22:41.434Z,72.92
2023-01-04T17:28:03.202Z,72.51
2023-01-04T17:33:25.511Z,72.46
2023-01-04T17:38:47.851Z,72.97
2023-01-04T17:44:10.801Z,73.23
2023-01-04T17:49:32.769Z,72.73
2023-01-04T17:54:54.596Z,73.28
2023-01-04T18:00:16.611Z,73.12
2023-01-04T18:05:51.233Z,74.05
2023-01-04T18:11:14.992Z,74.02
2023-01-04T18:16:56.530Z,74.78
2023-01-04T18:22:18.826Z,75.31
2023-01-04T18:27:40.638Z,74.92
2023-01-04T18:33:02.797Z,75.26
2023-01-04T18:38:24.592Z,75.81
2023-01-04T18:44:13.361Z,76.17
2023-01-04T18:49:35.725Z,76.18
2023-01-04T18:54:57.447Z,76.54
2023-01-04T19:00:19.342Z,76.15
2023-01-04T19:05:41.439Z,77.07
2023-01-04T19:11:03.448Z,76.73
2023-01-04T19:16:29.478Z,77.03
2023-01-04T19:21:51.339Z,77.60
2023-01-04T19:27:13.179Z,77.95
2023-01-04T19:32:35.033Z,78.32
2023-01-04T19:37:57.365Z,78.58
2023-01-04T19:43:19.303Z,79.07
2023-01-04T19:48:41.416Z,79.99
2023-01-04T19:54:03.301Z,80.66
2023-01-04T19:59:25.248Z,81.16
2023-01-04T20:04:47.004Z,81.33
2023-01-04T20:10:14.056Z,81.54
2023-01-04T20:15:40.585Z,81.97
2023-01-04T20:21:06.064Z,82.92
2023-01-04T20:26:28.027Z,84.06
2023-01-04T20:31:50.036Z,84.28
2023-01-04T20:37:11.826Z,84.24
2023-01-04T20:42:53.108Z,84.16
2023-01-04T20:48:15.733Z,83.58
2023-01-04T20:53:37.866Z,83.80
2023-01-04T20:59:00.045Z,84.07
2023-01-04T21:04:21.769Z,84.13
2023-01-04T21:09:43.519Z,84.41
2023-01-04T21:15:06.663Z,84.42
2023-01-04T21:20:28.798Z,83.77
2023-01-04T21:25:51.062Z,83.94
2023-01-04T21:31:16.915Z,84.08
2023-01-04T21:36:38.704Z,83.39
2023-01-04T21:42:00.532Z,83.87
2023-01-04T21:47:22.330Z,83.05
2023-01-04T21:52:45.180Z,83.57
2023-01-04T21:58:06.955Z,83.02
2023-01-04T22:03:28.724Z,83.18
2023-01-04T22:08:51.462Z,82.97
2023-01-04T22:14:13.175Z,83.10
2023-01-04T22:19:34.980Z,83.26
2023-01-04T22:24:57.406Z,83.28
2023-01-04T22:30:19.224Z,83.88
2023-01-04T22:35:41.117Z,83.49
2023-01-04T22:41:13.389Z,83.71
2023-01-04T22:46:35.795Z,83.64
2023-01-04T22:51:57.903Z,84.02
2023-01-04T22:57:19.626Z,84.04
2023-01-04T23:02:41.603Z,84.22
2023-01-04T23:08:03.543Z,83.68
2023-01-04T23:13:25.316Z,83.41
2023-01-04T23:18:47.125Z,83.53
2023-01-04T23:24:13.106Z,83.69
2023-01-04T23:29:34.847Z,83.79
2023-01-04T23:34:56.546Z,83.53
2023-01-04T23:40:18.264Z,83.14
2023-01-04T23:45:40.040Z,83.48
2023-01-04T23:51:01.808Z,82.82
2023-01-04T23:56:23.572Z,82.33
